createdAt,value
2022-12-27T00:00:05.116Z,4.20
2022-12-27T00:02:40.410Z,4.20
2022-12-27T00:05:08.779Z,4.20
2022-12-27T00:07:35.863Z,4.10
2022-12-27T00:10:02.814Z,4.10
2022-12-27T00:12:30.026Z,4.20
2022-12-27T00:14:56.741Z,4.10
2022-12-27T00:17:24.105Z,4.10
2022-12-27T00:19:50.924Z,4.00
2022-12-27T00:22:17.675Z,4.00
2022-12-27T00:24:44.432Z,4.00
2022-12-27T00:27:11.331Z,4.10
2022-12-27T00:29:38.209Z,4.00
2022-12-27T00:32:05.184Z,4.00
2022-12-27T00:34:32.084Z,4.00
2022-12-27T00:36:58.885Z,4.00
2022-12-27T00:39:25.814Z,4.00
2022-12-27T00:41:52.568Z,4.00
2022-12-27T00:44:19.457Z,4.00
2022-12-27T00:46:46.303Z,4.00
2022-12-27T00:49:13.051Z,4.00
2022-12-27T00:51:39.829Z,4.00
2022-12-27T00:54:07.594Z,4.00
2022-12-27T00:56:34.390Z,4.00
2022-12-27T00:59:02.207Z,4.10
2022-12-27T01:01:31.600Z,4.00
2022-12-27T01:03:59.007Z,4.00
2022-12-27T01:06:28.952Z,4.00
2022-12-27T01:08:56.370Z,4.00
2022-12-27T01:11:23.620Z,3.90
2022-12-27T01:13:50.466Z,3.90
2022-12-27T01:16:18.869Z,4.00
2022-12-27T01:18:46.083Z,4.00
2022-12-27T01:21:13.735Z,4.00
2022-12-27T01:23:41.007Z,3.90
2022-12-27T01:26:10.491Z,4.00
2022-12-27T01:28:37.644Z,3.90
2022-12-27T01:31:08.384Z,3.90
2022-12-27T01:33:35.241Z,3.90
2022-12-27T01:36:19.294Z,3.90
2022-12-27T01:38:48.070Z,3.90
2022-12-27T01:41:53.509Z,3.90
2022-12-27T01:44:49.653Z,3.90
2022-12-27T01:47:29.472Z,3.90
2022-12-27T01:50:05.353Z,3.90
2022-12-27T01:52:37.885Z,3.90
2022-12-27T01:55:08.737Z,3.90
2022-12-27T01:57:35.653Z,3.90
2022-12-27T02:00:02.644Z,3.90
2022-12-27T02:02:32.405Z,4.00
2022-12-27T02:04:59.287Z,3.90
2022-12-27T02:07:31.341Z,3.90
2022-12-27T02:09:59.177Z,3.90
2022-12-27T02:12:26.350Z,3.90
2022-12-27T02:14:53.172Z,3.90
2022-12-27T02:17:21.866Z,3.90
2022-12-27T02:20:00.750Z,3.90
2022-12-27T02:23:18.979Z,3.90
2022-12-27T02:25:55.507Z,3.90
2022-12-27T02:28:31.582Z,3.90
2022-12-27T02:31:13.943Z,3.90
2022-12-27T02:33:44.217Z,3.90
2022-12-27T02:36:14.506Z,3.90
2022-12-27T02:38:44.407Z,3.90
2022-12-27T02:41:30.328Z,3.90
2022-12-27T02:44:16.234Z,3.80
2022-12-27T02:47:06.111Z,3.90
2022-12-27T02:49:51.591Z,3.90
2022-12-27T02:52:44.119Z,3.90
2022-12-27T02:55:10.903Z,3.90
2022-12-27T02:57:49.469Z,3.90
2022-12-27T03:00:37.543Z,3.90
2022-12-27T03:03:25.590Z,3.90
2022-12-27T03:06:12.355Z,3.90
2022-12-27T03:08:55.851Z,3.90
2022-12-27T03:11:42.231Z,3.80
2022-12-27T03:14:34.116Z,3.80
2022-12-27T03:17:05.881Z,3.90
2022-12-27T03:19:57.553Z,3.90
2022-12-27T03:22:44.532Z,3.90
2022-12-27T03:25:27.984Z,3.80
2022-12-27T03:28:15.392Z,3.90
2022-12-27T03:31:02.247Z,3.90
2022-12-27T03:33:30.328Z,3.90
2022-12-27T03:36:24.430Z,3.90
2022-12-27T03:38:54.750Z,3.90
2022-12-27T03:41:42.899Z,3.90
2022-12-27T03:44:24.567Z,4.00
2022-12-27T03:46:56.419Z,4.00
2022-12-27T03:49:35.413Z,4.00
2022-12-27T03:52:08.428Z,4.00
2022-12-27T03:54:43.261Z,4.00
2022-12-27T03:57:14.866Z,4.00
2022-12-27T03:59:41.877Z,4.00
2022-12-27T04:02:09.344Z,4.10
2022-12-27T04:04:36.615Z,4.10
2022-12-27T04:07:03.821Z,4.10
2022-12-27T04:09:49.165Z,4.20
2022-12-27T04:12:34.708Z,4.20
2022-12-27T04:15:20.264Z,4.20
2022-12-27T04:18:05.739Z,4.20
2022-12-27T04:20:51.242Z,4.30
2022-12-27T04:23:36.725Z,4.30
2022-12-27T04:26:22.026Z,4.30
2022-12-27T04:29:07.615Z,4.20
2022-12-27T04:31:53.120Z,4.30
2022-12-27T04:34:38.874Z,4.30
2022-12-27T04:37:05.849Z,4.30
2022-12-27T04:39:32.779Z,4.30
2022-12-27T04:42:18.226Z,4.30
2022-12-27T04:44:45.013Z,4.30
2022-12-27T04:47:31.992Z,4.30
2022-12-27T04:50:17.476Z,4.30
2022-12-27T04:53:03.119Z,4.40
2022-12-27T04:55:30.470Z,4.40
2022-12-27T04:57:57.815Z,4.40
2022-12-27T05:00:45.811Z,4.40
2022-12-27T05:03:21.216Z,4.40
2022-12-27T05:05:48.761Z,4.40
2022-12-27T05:08:34.378Z,4.40
2022-12-27T05:11:19.902Z,4.40
2022-12-27T05:14:02.016Z,4.40
2022-12-27T05:16:34.660Z,4.50
2022-12-27T05:19:01.541Z,4.40
2022-12-27T05:21:28.288Z,4.40
2022-12-27T05:24:13.844Z,4.40
2022-12-27T05:26:40.868Z,4.50
2022-12-27T05:29:08.351Z,4.40
2022-12-27T05:31:35.512Z,4.40
2022-12-27T05:34:02.430Z,4.40
2022-12-27T05:36:29.259Z,4.50
2022-12-27T05:38:56.236Z,4.50
2022-12-27T05:41:23.086Z,4.40
2022-12-27T05:43:49.944Z,4.40
2022-12-27T05:46:18.668Z,4.40
2022-12-27T05:48:45.425Z,4.40
2022-12-27T05:51:13.961Z,4.40
2022-12-27T05:53:40.928Z,4.40
2022-12-27T05:56:08.761Z,4.50
2022-12-27T05:58:35.640Z,4.40
2022-12-27T06:01:07.353Z,4.40
2022-12-27T06:03:34.271Z,4.40
2022-12-27T06:06:01.856Z,4.40
2022-12-27T06:08:28.894Z,4.40
2022-12-27T06:11:22.025Z,4.40
2022-12-27T06:13:50.248Z,4.40
2022-12-27T06:16:17.123Z,4.50
2022-12-27T06:18:44.035Z,4.40
2022-12-27T06:21:12.563Z,4.40
2022-12-27T06:23:40.148Z,4.40
2022-12-27T06:26:07.780Z,4.40
2022-12-27T06:28:35.169Z,4.40
2022-12-27T06:31:02.176Z,4.40
2022-12-27T06:33:28.951Z,4.40
2022-12-27T06:35:55.697Z,4.40
2022-12-27T06:38:22.785Z,4.40
2022-12-27T06:40:49.614Z,4.50
2022-12-27T06:43:16.462Z,4.40
2022-12-27T06:45:43.277Z,4.40
2022-12-27T06:48:10.066Z,4.40
2022-12-27T06:50:36.997Z,4.40
2022-12-27T06:53:03.732Z,4.40
2022-12-27T06:55:30.513Z,4.40
2022-12-27T06:57:57.351Z,4.40
2022-12-27T07:00:24.197Z,4.40
2022-12-27T07:02:51.096Z,4.40
2022-12-27T07:05:17.925Z,4.50
2022-12-27T07:07:44.769Z,4.50
2022-12-27T07:10:11.595Z,4.50
2022-12-27T07:12:38.497Z,4.60
2022-12-27T07:15:06.328Z,4.60
2022-12-27T07:17:34.679Z,4.60
2022-12-27T07:20:01.719Z,4.60
2022-12-27T07:22:28.466Z,4.60
2022-12-27T07:24:55.324Z,4.60
2022-12-27T07:27:22.062Z,4.70
2022-12-27T07:29:48.929Z,4.70
2022-12-27T07:32:15.692Z,4.60
2022-12-27T07:34:42.562Z,4.70
2022-12-27T07:37:09.432Z,4.70
2022-12-27T07:39:36.270Z,4.70
2022-12-27T07:42:07.939Z,4.70
2022-12-27T07:44:37.541Z,4.70
2022-12-27T07:47:04.627Z,4.70
2022-12-27T07:49:31.376Z,4.70
2022-12-27T07:51:58.157Z,4.60
2022-12-27T07:54:24.917Z,4.60
2022-12-27T07:56:51.635Z,4.50
2022-12-27T07:59:18.468Z,4.50
2022-12-27T08:02:04.073Z,4.50
2022-12-27T08:04:31.571Z,4.40
2022-12-27T08:07:18.654Z,4.40
2022-12-27T08:09:46.608Z,4.40
2022-12-27T08:12:13.765Z,4.40
2022-12-27T08:14:40.908Z,4.40
2022-12-27T08:17:24.385Z,4.40
2022-12-27T08:19:51.943Z,4.40
2022-12-27T08:22:18.718Z,4.40
2022-12-27T08:24:45.633Z,4.40
2022-12-27T08:27:12.694Z,4.40
2022-12-27T08:29:39.960Z,4.40
2022-12-27T08:32:06.739Z,4.40
2022-12-27T08:34:33.534Z,4.40
2022-12-27T08:37:00.277Z,4.40
2022-12-27T08:39:27.682Z,4.50
2022-12-27T08:41:54.418Z,4.50
2022-12-27T08:44:21.406Z,4.50
2022-12-27T08:46:48.193Z,4.50
2022-12-27T08:49:14.928Z,4.50
2022-12-27T08:51:41.885Z,4.50
2022-12-27T08:54:09.210Z,4.50
2022-12-27T08:56:36.078Z,4.50
2022-12-27T08:59:02.867Z,4.50
2022-12-27T09:01:29.847Z,4.50
2022-12-27T09:03:56.772Z,4.50
2022-12-27T09:06:24.637Z,4.40
2022-12-27T09:08:51.963Z,4.50
2022-12-27T09:11:20.110Z,4.50
2022-12-27T09:13:47.254Z,4.50
2022-12-27T09:16:15.612Z,4.60
2022-12-27T09:18:43.146Z,4.60
2022-12-27T09:21:11.293Z,4.50
2022-12-27T09:23:38.570Z,4.60
2022-12-27T09:26:06.388Z,4.60
2022-12-27T09:28:33.175Z,4.60
2022-12-27T09:31:00.051Z,4.60
2022-12-27T09:33:27.595Z,4.60
2022-12-27T09:36:00.433Z,4.60
2022-12-27T09:38:27.196Z,4.60
2022-12-27T09:40:59.414Z,4.60
2022-12-27T09:43:38.717Z,4.70
2022-12-27T09:46:09.706Z,4.70
2022-12-27T09:48:38.516Z,4.70
2022-12-27T09:51:20.278Z,4.70
2022-12-27T09:53:47.069Z,4.60
2022-12-27T09:56:16.550Z,4.60
2022-12-27T09:58:43.314Z,4.70
2022-12-27T10:01:18.780Z,4.70
2022-12-27T10:03:45.741Z,4.70
2022-12-27T10:06:35.911Z,4.70
2022-12-27T10:09:11.847Z,4.80
2022-12-27T10:11:57.543Z,4.80
2022-12-27T10:14:42.779Z,4.80
2022-12-27T10:17:12.789Z,4.80
2022-12-27T10:19:42.664Z,4.80
2022-12-27T10:22:12.486Z,4.80
2022-12-27T10:24:41.288Z,4.80
2022-12-27T10:27:13.225Z,4.80
2022-12-27T10:29:41.034Z,4.90
2022-12-27T10:32:09.517Z,4.90
2022-12-27T10:34:36.331Z,4.90
2022-12-27T10:37:03.081Z,5.00
2022-12-27T10:39:32.207Z,5.00
2022-12-27T10:42:14.254Z,5.10
2022-12-27T10:44:41.186Z,5.10
2022-12-27T10:47:08.449Z,5.20
2022-12-27T10:49:35.724Z,5.20
2022-12-27T10:52:10.303Z,5.20
2022-12-27T10:54:49.664Z,5.20
2022-12-27T10:57:29.593Z,5.20
2022-12-27T11:00:15.796Z,5.20
2022-12-27T11:03:08.943Z,5.20
2022-12-27T11:05:37.103Z,5.30
2022-12-27T11:08:20.467Z,5.30
2022-12-27T11:10:47.267Z,5.30
2022-12-27T11:13:19.190Z,5.30
2022-12-27T11:15:58.295Z,5.30
2022-12-27T11:18:26.040Z,5.30
2022-12-27T11:20:57.281Z,5.40
2022-12-27T11:23:27.239Z,5.40
2022-12-27T11:26:01.502Z,5.40
2022-12-27T11:28:34.461Z,5.50
2022-12-27T11:31:03.755Z,5.50
2022-12-27T11:33:39.882Z,5.50
2022-12-27T11:36:11.055Z,5.60
2022-12-27T11:38:38.593Z,5.60
2022-12-27T11:41:13.955Z,5.60
2022-12-27T11:44:01.834Z,5.60
2022-12-27T11:46:34.721Z,5.60
2022-12-27T11:49:04.603Z,5.60
2022-12-27T11:51:51.074Z,5.60
2022-12-27T11:54:26.999Z,5.60
2022-12-27T11:57:00.360Z,5.60
2022-12-27T11:59:27.135Z,5.60
2022-12-27T12:02:06.531Z,5.60
2022-12-27T12:04:56.700Z,5.60
2022-12-27T12:07:27.594Z,5.60
2022-12-27T12:10:03.707Z,5.70
2022-12-27T12:12:36.588Z,5.70
2022-12-27T12:15:18.649Z,5.70
2022-12-27T12:17:45.413Z,5.70
2022-12-27T12:20:12.210Z,5.70
2022-12-27T12:22:57.225Z,5.70
2022-12-27T12:25:33.213Z,5.70
2022-12-27T12:28:29.963Z,5.70
2022-12-27T12:30:59.043Z,5.70
2022-12-27T12:33:38.682Z,5.70
2022-12-27T12:36:20.935Z,5.70
2022-12-27T12:38:55.497Z,5.70
2022-12-27T12:41:31.423Z,5.80
2022-12-27T12:44:10.929Z,5.80
2022-12-27T12:46:37.750Z,5.80
2022-12-27T12:49:07.455Z,5.80
2022-12-27T12:51:45.601Z,5.80
2022-12-27T12:54:17.527Z,5.80
2022-12-27T12:56:59.535Z,5.80
2022-12-27T12:59:26.283Z,5.80
2022-12-27T13:02:11.934Z,5.80
2022-12-27T13:04:57.043Z,5.90
2022-12-27T13:07:40.429Z,5.90
2022-12-27T13:10:10.360Z,5.90
2022-12-27T13:13:16.103Z,5.90
2022-12-27T13:15:57.048Z,5.90
2022-12-27T13:18:30.436Z,5.90
2022-12-27T13:21:00.802Z,5.90
2022-12-27T13:23:33.671Z,5.90
2022-12-27T13:26:00.401Z,5.90
2022-12-27T13:28:27.190Z,5.90
2022-12-27T13:31:03.097Z,5.90
2022-12-27T13:33:44.647Z,5.90
2022-12-27T13:36:35.265Z,5.90
2022-12-27T13:39:17.360Z,5.90
2022-12-27T13:41:54.458Z,5.80
2022-12-27T13:44:21.266Z,5.80
2022-12-27T13:46:54.406Z,5.80
2022-12-27T13:49:30.491Z,5.80
2022-12-27T13:52:20.565Z,5.80
2022-12-27T13:55:10.611Z,5.80
2022-12-27T13:58:11.674Z,5.80
2022-12-27T14:00:46.566Z,5.70
2022-12-27T14:03:32.415Z,5.70
2022-12-27T14:06:19.524Z,5.80
2022-12-27T14:08:46.252Z,5.70
2022-12-27T14:11:22.209Z,5.70
2022-12-27T14:13:49.434Z,5.70
2022-12-27T14:16:24.486Z,5.70
2022-12-27T14:19:09.730Z,5.70
2022-12-27T14:21:45.667Z,5.70
2022-12-27T14:24:18.672Z,5.70
2022-12-27T14:27:00.869Z,5.70
2022-12-27T14:29:27.741Z,5.60
2022-12-27T14:32:13.487Z,5.60
2022-12-27T14:34:59.807Z,5.60
2022-12-27T14:37:36.146Z,5.60
2022-12-27T14:40:18.182Z,5.60
2022-12-27T14:42:54.083Z,5.60
2022-12-27T14:45:39.618Z,5.50
2022-12-27T14:48:25.214Z,5.50
2022-12-27T14:51:26.228Z,5.50
2022-12-27T14:54:00.688Z,5.40
2022-12-27T14:56:38.221Z,5.50
2022-12-27T14:59:05.033Z,5.50
2022-12-27T15:01:55.164Z,5.40
2022-12-27T15:04:21.959Z,5.40
2022-12-27T15:06:51.755Z,5.40
2022-12-27T15:09:24.653Z,5.40
2022-12-27T15:12:08.309Z,5.40
2022-12-27T15:14:38.055Z,5.40
2022-12-27T15:17:04.900Z,5.40
2022-12-27T15:19:31.624Z,5.30
2022-12-27T15:22:17.247Z,5.30
2022-12-27T15:24:55.735Z,5.40
2022-12-27T15:27:25.517Z,5.40
2022-12-27T15:30:05.336Z,5.30
2022-12-27T15:32:32.098Z,5.30
2022-12-27T15:35:08.075Z,5.30
2022-12-27T15:37:47.189Z,5.30
2022-12-27T15:40:23.357Z,5.30
2022-12-27T15:43:13.433Z,5.30
2022-12-27T15:45:55.505Z,5.30
2022-12-27T15:48:28.371Z,5.30
2022-12-27T15:51:13.506Z,5.30
2022-12-27T15:53:58.966Z,5.30
2022-12-27T15:56:31.851Z,5.30
2022-12-27T15:59:17.536Z,5.30
2022-12-27T16:01:44.521Z,5.30
2022-12-27T16:04:30.247Z,5.30
2022-12-27T16:07:03.896Z,5.30
2022-12-27T16:09:30.954Z,5.30
2022-12-27T16:12:03.636Z,5.30
2022-12-27T16:14:31.727Z,5.30
2022-12-27T16:17:18.713Z,5.30
2022-12-27T16:19:53.551Z,5.20
2022-12-27T16:22:25.416Z,5.20
2022-12-27T16:24:52.270Z,5.30
2022-12-27T16:27:23.785Z,5.20
2022-12-27T16:29:50.545Z,5.20
2022-12-27T16:32:25.126Z,5.30
2022-12-27T16:34:55.288Z,5.20
2022-12-27T16:37:48.497Z,5.20
2022-12-27T16:40:21.404Z,5.10
2022-12-27T16:42:48.089Z,5.10
2022-12-27T16:45:33.201Z,5.10
2022-12-27T16:48:18.932Z,5.10
2022-12-27T16:50:55.468Z,5.00
2022-12-27T16:53:22.244Z,5.00
2022-12-27T16:56:04.337Z,5.00
2022-12-27T16:58:31.102Z,5.00
2022-12-27T17:00:59.393Z,5.00
2022-12-27T17:03:29.846Z,4.90
2022-12-27T17:06:30.618Z,4.90
2022-12-27T17:08:44.027Z,4.90
2022-12-27T17:11:10.773Z,4.80
2022-12-27T17:13:40.788Z,4.80
2022-12-27T17:16:12.937Z,4.80
2022-12-27T17:18:59.088Z,4.80
2022-12-27T17:21:29.812Z,4.80
2022-12-27T17:23:58.804Z,4.80
2022-12-27T17:26:25.557Z,4.80
2022-12-27T17:29:02.614Z,4.70
2022-12-27T17:32:01.833Z,4.70
2022-12-27T17:34:37.916Z,4.70
2022-12-27T17:37:12.833Z,4.70
2022-12-27T17:39:42.551Z,4.70
2022-12-27T17:42:38.645Z,4.70
2022-12-27T17:45:08.244Z,4.80
2022-12-27T17:47:50.343Z,4.80
2022-12-27T17:50:23.858Z,4.80
2022-12-27T17:53:27.719Z,4.80
2022-12-27T17:56:17.830Z,4.80
2022-12-27T17:58:44.830Z,4.90
2022-12-27T18:01:12.143Z,4.90
2022-12-27T18:03:44.064Z,4.90
2022-12-27T18:06:11.082Z,4.90
2022-12-27T18:08:38.849Z,4.90
2022-12-27T18:11:06.081Z,5.00
2022-12-27T18:13:34.366Z,5.00
2022-12-27T18:16:04.905Z,5.00
2022-12-27T18:18:34.724Z,5.00
2022-12-27T18:21:04.009Z,5.00
2022-12-27T18:23:41.647Z,5.00
2022-12-27T18:26:13.667Z,5.00
2022-12-27T18:28:41.156Z,5.10
2022-12-27T18:31:14.178Z,5.10
2022-12-27T18:33:45.575Z,5.10
2022-12-27T18:36:15.280Z,5.20
2022-12-27T18:38:43.348Z,5.10
2022-12-27T18:41:12.867Z,5.20
2022-12-27T18:43:43.898Z,5.20
2022-12-27T18:46:16.409Z,5.20
2022-12-27T18:48:43.437Z,5.30
2022-12-27T18:51:10.267Z,5.30
2022-12-27T18:53:38.326Z,5.30
2022-12-27T18:56:14.601Z,5.30
2022-12-27T18:58:58.204Z,5.30
2022-12-27T19:01:24.948Z,5.30
2022-12-27T19:04:10.751Z,5.30
2022-12-27T19:06:37.809Z,5.30
2022-12-27T19:09:06.134Z,5.40
2022-12-27T19:11:36.493Z,5.40
2022-12-27T19:14:05.013Z,5.30
2022-12-27T19:16:34.357Z,5.30
2022-12-27T19:19:09.689Z,5.30
2022-12-27T19:21:37.563Z,5.30
2022-12-27T19:24:19.800Z,5.30
2022-12-27T19:26:46.630Z,5.30
2022-12-27T19:29:23.839Z,5.30
2022-12-27T19:31:53.604Z,5.30
2022-12-27T19:34:21.084Z,5.30
2022-12-27T19:36:48.364Z,5.30
2022-12-27T19:39:24.418Z,5.30
2022-12-27T19:41:51.614Z,5.30
2022-12-27T19:44:19.137Z,5.30
2022-12-27T19:46:46.142Z,5.20
2022-12-27T19:49:41.465Z,5.20
2022-12-27T19:52:00.205Z,5.20
2022-12-27T19:54:27.236Z,5.20
2022-12-27T19:56:54.068Z,5.20
2022-12-27T19:59:22.038Z,5.10
2022-12-27T20:01:49.119Z,5.10
2022-12-27T20:04:16.942Z,5.10
2022-12-27T20:06:44.977Z,5.10
2022-12-27T20:09:16.321Z,5.10
2022-12-27T20:11:43.211Z,5.10
2022-12-27T20:14:10.002Z,5.10
2022-12-27T20:16:36.855Z,5.10
2022-12-27T20:19:03.642Z,5.20
2022-12-27T20:21:30.408Z,5.10
2022-12-27T20:23:57.195Z,5.10
2022-12-27T20:26:24.844Z,5.10
2022-12-27T20:28:52.026Z,5.10
2022-12-27T20:31:19.661Z,5.10
2022-12-27T20:33:50.976Z,5.10
2022-12-27T20:36:17.816Z,5.00
2022-12-27T20:38:44.712Z,5.00
2022-12-27T20:41:12.968Z,5.00
2022-12-27T20:43:40.034Z,5.00
2022-12-27T20:46:07.916Z,5.00
2022-12-27T20:48:38.649Z,5.00
2022-12-27T20:51:09.455Z,5.00
2022-12-27T20:53:36.419Z,5.00
2022-12-27T20:56:04.078Z,5.00
2022-12-27T20:58:33.929Z,5.00
2022-12-27T21:01:27.379Z,5.00
2022-12-27T21:03:55.943Z,5.00
2022-12-27T21:06:27.172Z,5.00
2022-12-27T21:08:57.243Z,5.00
2022-12-27T21:11:31.377Z,5.00
2022-12-27T21:13:59.530Z,5.00
2022-12-27T21:16:27.565Z,4.90
2022-12-27T21:18:54.872Z,4.90
2022-12-27T21:21:24.701Z,5.00
2022-12-27T21:23:54.657Z,5.00
2022-12-27T21:26:23.080Z,5.00
2022-12-27T21:28:50.050Z,5.00
2022-12-27T21:31:17.599Z,5.00
2022-12-27T21:33:44.742Z,5.00
2022-12-27T21:36:13.602Z,5.00
2022-12-27T21:38:40.719Z,5.00
2022-12-27T21:41:15.839Z,5.00
2022-12-27T21:43:43.147Z,5.00
2022-12-27T21:46:12.922Z,5.00
2022-12-27T21:48:39.996Z,5.00
2022-12-27T21:51:16.846Z,5.00
2022-12-27T21:53:44.163Z,5.00
2022-12-27T21:56:11.990Z,5.00
2022-12-27T21:58:39.341Z,5.00
2022-12-27T22:01:25.688Z,5.00
2022-12-27T22:03:53.382Z,5.00
2022-12-27T22:06:27.611Z,5.10
2022-12-27T22:08:55.985Z,5.10
2022-12-27T22:11:23.380Z,5.10
2022-12-27T22:13:50.622Z,5.10
2022-12-27T22:16:18.727Z,5.10
2022-12-27T22:18:46.076Z,5.10
2022-12-27T22:21:13.869Z,5.10
2022-12-27T22:23:42.493Z,5.10
2022-12-27T22:26:11.169Z,5.20
2022-12-27T22:28:38.223Z,5.20
2022-12-27T22:31:09.021Z,5.20
2022-12-27T22:33:36.209Z,5.20
2022-12-27T22:36:06.974Z,5.30
2022-12-27T22:38:33.720Z,5.30
2022-12-27T22:41:27.051Z,5.30
2022-12-27T22:43:55.080Z,5.30
2022-12-27T22:46:21.979Z,5.30
2022-12-27T22:48:52.982Z,5.30
2022-12-27T22:51:21.276Z,5.40
2022-12-27T22:53:48.512Z,5.40
2022-12-27T22:56:17.061Z,5.50
2022-12-27T22:58:43.785Z,5.50
2022-12-27T23:01:14.420Z,5.50
2022-12-27T23:03:41.625Z,5.50
2022-12-27T23:06:08.443Z,5.50
2022-12-27T23:08:36.091Z,5.60
2022-12-27T23:11:03.869Z,5.60
2022-12-27T23:13:30.624Z,5.60
2022-12-27T23:15:58.074Z,5.60
2022-12-27T23:18:25.237Z,5.60
2022-12-27T23:21:20.593Z,5.60
2022-12-27T23:23:39.085Z,5.70
2022-12-27T23:26:07.238Z,5.70
2022-12-27T23:28:35.209Z,5.70
2022-12-27T23:31:02.033Z,5.80
2022-12-27T23:33:28.957Z,5.80
2022-12-27T23:35:55.786Z,5.80
2022-12-27T23:38:22.636Z,5.80
2022-12-27T23:41:00.011Z,5.90
2022-12-27T23:43:51.608Z,5.90
2022-12-27T23:46:19.303Z,5.90
2022-12-27T23:48:46.482Z,5.90
2022-12-27T23:51:14.475Z,5.90
2022-12-27T23:53:41.726Z,5.90
2022-12-27T23:56:11.967Z,5.80
2022-12-27T23:58:38.832Z,5.90
